sensor_id;sensor_type;location;lat;lon;timestamp;temperature;humidity
69387;SHT31;56575;48.942;8.404;2023-06-14T00:02:19;17.63;48.25
69387;SHT31;56575;48.942;8.404;2023-06-14T00:04:44;17.68;48.09
69387;SHT31;56575;48.942;8.404;2023-06-14T00:07:10;17.68;47.99
69387;SHT31;56575;48.942;8.404;2023-06-14T00:09:38;17.71;47.39
69387;SHT31;56575;48.942;8.404;2023-06-14T00:12:04;17.73;47.34
69387;SHT31;56575;48.942;8.404;2023-06-14T00:14:31;17.74;47.62
69387;SHT31;56575;48.942;8.404;2023-06-14T00:16:56;17.68;47.54
69387;SHT31;56575;48.942;8.404;2023-06-14T00:19:24;17.64;47.85
69387;SHT31;56575;48.942;8.404;2023-06-14T00:21:50;17.58;48.00
69387;SHT31;56575;48.942;8.404;2023-06-14T00:24:17;17.51;48.75
69387;SHT31;56575;48.942;8.404;2023-06-14T00:26:42;17.46;47.80
69387;SHT31;56575;48.942;8.404;2023-06-14T00:29:07;17.40;47.92
69387;SHT31;56575;48.942;8.404;2023-06-14T00:31:33;17.43;48.02
69387;SHT31;56575;48.942;8.404;2023-06-14T00:33:58;17.46;47.20
69387;SHT31;56575;48.942;8.404;2023-06-14T00:36:24;17.57;47.60
69387;SHT31;56575;48.942;8.404;2023-06-14T00:38:49;17.68;48.41
69387;SHT31;56575;48.942;8.404;2023-06-14T00:41:14;17.70;47.83
69387;SHT31;56575;48.942;8.404;2023-06-14T00:43:40;17.65;47.81
69387;SHT31;56575;48.942;8.404;2023-06-14T00:46:05;17.61;48.68
69387;SHT31;56575;48.942;8.404;2023-06-14T00:48:31;17.58;48.87
69387;SHT31;56575;48.942;8.404;2023-06-14T00:50:57;17.54;48.36
69387;SHT31;56575;48.942;8.404;2023-06-14T00:53:23;17.55;48.89
69387;SHT31;56575;48.942;8.404;2023-06-14T00:55:50;17.53;47.79
69387;SHT31;56575;48.942;8.404;2023-06-14T00:58:15;17.48;48.42
69387;SHT31;56575;48.942;8.404;2023-06-14T01:00:41;17.40;48.09
69387;SHT31;56575;48.942;8.404;2023-06-14T01:03:07;17.31;49.24
69387;SHT31;56575;48.942;8.404;2023-06-14T01:05:33;17.27;49.12
69387;SHT31;56575;48.942;8.404;2023-06-14T01:08:39;17.29;48.28
69387;SHT31;56575;48.942;8.404;2023-06-14T01:11:16;17.29;48.51
69387;SHT31;56575;48.942;8.404;2023-06-14T01:13:45;17.30;48.35
69387;SHT31;56575;48.942;8.404;2023-06-14T01:16:11;17.29;48.34
69387;SHT31;56575;48.942;8.404;2023-06-14T01:18:37;17.34;47.60
69387;SHT31;56575;48.942;8.404;2023-06-14T01:21:03;17.37;47.46
69387;SHT31;56575;48.942;8.404;2023-06-14T01:23:31;17.36;47.14
69387;SHT31;56575;48.942;8.404;2023-06-14T01:26:00;17.39;47.08
69387;SHT31;56575;48.942;8.404;2023-06-14T01:28:29;17.33;47.05
69387;SHT31;56575;48.942;8.404;2023-06-14T01:31:00;17.30;47.96
69387;SHT31;56575;48.942;8.404;2023-06-14T01:33:29;17.30;47.44
69387;SHT31;56575;48.942;8.404;2023-06-14T01:35:56;17.24;47.88
69387;SHT31;56575;48.942;8.404;2023-06-14T01:38:24;17.19;47.03
69387;SHT31;56575;48.942;8.404;2023-06-14T01:40:50;17.15;47.88
69387;SHT31;56575;48.942;8.404;2023-06-14T01:43:18;17.15;47.73
69387;SHT31;56575;48.942;8.404;2023-06-14T01:45:45;17.13;47.43
69387;SHT31;56575;48.942;8.404;2023-06-14T01:48:12;17.08;47.30
69387;SHT31;56575;48.942;8.404;2023-06-14T01:50:37;17.06;47.57
69387;SHT31;56575;48.942;8.404;2023-06-14T01:53:07;17.03;47.50
69387;SHT31;56575;48.942;8.404;2023-06-14T01:55:32;16.99;47.92
69387;SHT31;56575;48.942;8.404;2023-06-14T01:58:02;16.92;48.34
69387;SHT31;56575;48.942;8.404;2023-06-14T02:00:27;16.81;48.52
69387;SHT31;56575;48.942;8.404;2023-06-14T02:02:53;16.76;47.86
69387;SHT31;56575;48.942;8.404;2023-06-14T02:05:18;16.78;48.42
69387;SHT31;56575;48.942;8.404;2023-06-14T02:07:44;16.75;48.31
69387;SHT31;56575;48.942;8.404;2023-06-14T02:10:09;16.63;48.84
69387;SHT31;56575;48.942;8.404;2023-06-14T02:12:35;16.67;48.26
69387;SHT31;56575;48.942;8.404;2023-06-14T02:15:00;16.67;48.51
69387;SHT31;56575;48.942;8.404;2023-06-14T02:17:25;16.63;48.90
69387;SHT31;56575;48.942;8.404;2023-06-14T02:19:51;16.57;49.19
69387;SHT31;56575;48.942;8.404;2023-06-14T02:22:16;16.53;49.42
69387;SHT31;56575;48.942;8.404;2023-06-14T02:24:42;16.53;49.96
69387;SHT31;56575;48.942;8.404;2023-06-14T02:27:08;16.47;50.13
69387;SHT31;56575;48.942;8.404;2023-06-14T02:29:35;16.47;50.25
69387;SHT31;56575;48.942;8.404;2023-06-14T02:32:01;16.46;50.25
69387;SHT31;56575;48.942;8.404;2023-06-14T02:34:26;16.47;51.27
69387;SHT31;56575;48.942;8.404;2023-06-14T02:36:52;16.40;51.13
69387;SHT31;56575;48.942;8.404;2023-06-14T02:39:17;16.36;50.99
69387;SHT31;56575;48.942;8.404;2023-06-14T02:41:46;16.29;50.71
69387;SHT31;56575;48.942;8.404;2023-06-14T02:44:13;16.21;50.95
69387;SHT31;56575;48.942;8.404;2023-06-14T02:46:38;16.24;49.91
69387;SHT31;56575;48.942;8.404;2023-06-14T02:49:04;16.29;49.97
69387;SHT31;56575;48.942;8.404;2023-06-14T02:51:30;16.34;48.73
69387;SHT31;56575;48.942;8.404;2023-06-14T02:53:55;16.36;50.40
69387;SHT31;56575;48.942;8.404;2023-06-14T02:56:21;16.40;50.57
69387;SHT31;56575;48.942;8.404;2023-06-14T02:58:48;16.37;51.19
69387;SHT31;56575;48.942;8.404;2023-06-14T03:01:14;16.40;51.88
69387;SHT31;56575;48.942;8.404;2023-06-14T03:03:39;16.43;52.78
69387;SHT31;56575;48.942;8.404;2023-06-14T03:06:05;16.43;51.65
69387;SHT31;56575;48.942;8.404;2023-06-14T03:08:31;16.43;52.14
69387;SHT31;56575;48.942;8.404;2023-06-14T03:10:58;16.44;51.68
69387;SHT31;56575;48.942;8.404;2023-06-14T03:13:23;16.43;52.13
69387;SHT31;56575;48.942;8.404;2023-06-14T03:15:49;16.34;51.74
69387;SHT31;56575;48.942;8.404;2023-06-14T03:18:17;16.29;51.52
69387;SHT31;56575;48.942;8.404;2023-06-14T03:20:42;16.21;51.90
69387;SHT31;56575;48.942;8.404;2023-06-14T03:23:11;16.12;52.52
69387;SHT31;56575;48.942;8.404;2023-06-14T03:25:36;16.05;52.44
69387;SHT31;56575;48.942;8.404;2023-06-14T03:28:04;15.99;52.87
69387;SHT31;56575;48.942;8.404;2023-06-14T03:30:30;15.95;54.00
69387;SHT31;56575;48.942;8.404;2023-06-14T03:32:57;15.86;53.41
69387;SHT31;56575;48.942;8.404;2023-06-14T03:35:23;15.79;53.25
69387;SHT31;56575;48.942;8.404;2023-06-14T03:37:49;15.74;53.64
69387;SHT31;56575;48.942;8.404;2023-06-14T03:40:17;15.65;54.95
69387;SHT31;56575;48.942;8.404;2023-06-14T03:42:43;15.58;54.60
69387;SHT31;56575;48.942;8.404;2023-06-14T03:45:09;15.58;54.23
69387;SHT31;56575;48.942;8.404;2023-06-14T03:47:35;15.59;54.18
69387;SHT31;56575;48.942;8.404;2023-06-14T03:50:01;15.62;54.07
69387;SHT31;56575;48.942;8.404;2023-06-14T03:52:27;15.55;54.03
69387;SHT31;56575;48.942;8.404;2023-06-14T03:54:52;15.55;54.53
69387;SHT31;56575;48.942;8.404;2023-06-14T03:57:18;15.54;54.41
69387;SHT31;56575;48.942;8.404;2023-06-14T03:59:44;15.58;54.44
69387;SHT31;56575;48.942;8.404;2023-06-14T04:02:09;15.57;54.51
69387;SHT31;56575;48.942;8.404;2023-06-14T04:04:35;15.55;54.19
69387;SHT31;56575;48.942;8.404;2023-06-14T04:07:01;15.51;54.31
69387;SHT31;56575;48.942;8.404;2023-06-14T04:09:29;15.50;53.90
69387;SHT31;56575;48.942;8.404;2023-06-14T04:11:55;15.47;54.30
69387;SHT31;56575;48.942;8.404;2023-06-14T04:14:21;15.48;55.26
69387;SHT31;56575;48.942;8.404;2023-06-14T04:16:47;15.40;55.09
69387;SHT31;56575;48.942;8.404;2023-06-14T04:19:13;15.43;55.22
69387;SHT31;56575;48.942;8.404;2023-06-14T04:21:39;15.41;55.65
69387;SHT31;56575;48.942;8.404;2023-06-14T04:24:04;15.41;54.91
69387;SHT31;56575;48.942;8.404;2023-06-14T04:26:30;15.40;54.67
69387;SHT31;56575;48.942;8.404;2023-06-14T04:28:59;15.34;54.35
69387;SHT31;56575;48.942;8.404;2023-06-14T04:31:28;15.29;55.36
69387;SHT31;56575;48.942;8.404;2023-06-14T04:33:55;15.24;55.76
69387;SHT31;56575;48.942;8.404;2023-06-14T04:36:21;15.30;55.82
69387;SHT31;56575;48.942;8.404;2023-06-14T04:38:47;15.27;55.75
69387;SHT31;56575;48.942;8.404;2023-06-14T04:41:14;15.30;55.70
69387;SHT31;56575;48.942;8.404;2023-06-14T04:43:41;15.33;56.12
69387;SHT31;56575;48.942;8.404;2023-06-14T04:46:08;15.34;56.75
69387;SHT31;56575;48.942;8.404;2023-06-14T04:48:37;15.40;55.68
69387;SHT31;56575;48.942;8.404;2023-06-14T04:51:03;15.36;55.11
69387;SHT31;56575;48.942;8.404;2023-06-14T04:53:29;15.39;55.46
69387;SHT31;56575;48.942;8.404;2023-06-14T04:55:54;15.44;55.87
69387;SHT31;56575;48.942;8.404;2023-06-14T04:58:20;15.46;55.66
69387;SHT31;56575;48.942;8.404;2023-06-14T05:00:45;15.51;55.78
69387;SHT31;56575;48.942;8.404;2023-06-14T05:03:11;15.55;56.06
69387;SHT31;56575;48.942;8.404;2023-06-14T05:05:41;15.58;55.02
69387;SHT31;56575;48.942;8.404;2023-06-14T05:08:07;15.62;55.82
69387;SHT31;56575;48.942;8.404;2023-06-14T05:10:33;15.67;55.71
69387;SHT31;56575;48.942;8.404;2023-06-14T05:13:00;15.81;56.69
69387;SHT31;56575;48.942;8.404;2023-06-14T05:15:26;15.91;55.80
69387;SHT31;56575;48.942;8.404;2023-06-14T05:17:52;16.01;54.98
69387;SHT31;56575;48.942;8.404;2023-06-14T05:20:21;16.10;54.78
69387;SHT31;56575;48.942;8.404;2023-06-14T05:22:48;16.20;54.69
69387;SHT31;56575;48.942;8.404;2023-06-14T05:25:15;16.29;54.48
69387;SHT31;56575;48.942;8.404;2023-06-14T05:27:40;16.39;54.42
69387;SHT31;56575;48.942;8.404;2023-06-14T05:30:07;16.43;54.76
69387;SHT31;56575;48.942;8.404;2023-06-14T05:32:33;16.46;54.85
69387;SHT31;56575;48.942;8.404;2023-06-14T05:34:59;16.56;55.17
69387;SHT31;56575;48.942;8.404;2023-06-14T05:37:25;16.64;55.19
69387;SHT31;56575;48.942;8.404;2023-06-14T05:39:50;16.72;55.13
69387;SHT31;56575;48.942;8.404;2023-06-14T05:42:15;16.79;55.56
69387;SHT31;56575;48.942;8.404;2023-06-14T05:44:41;16.85;55.51
69387;SHT31;56575;48.942;8.404;2023-06-14T05:47:06;16.93;55.52
69387;SHT31;56575;48.942;8.404;2023-06-14T05:49:31;17.05;55.13
69387;SHT31;56575;48.942;8.404;2023-06-14T05:51:57;17.15;56.03
69387;SHT31;56575;48.942;8.404;2023-06-14T05:54:22;17.22;56.05
69387;SHT31;56575;48.942;8.404;2023-06-14T05:56:47;17.33;56.26
69387;SHT31;56575;48.942;8.404;2023-06-14T05:59:13;17.41;56.44
69387;SHT31;56575;48.942;8.404;2023-06-14T06:01:38;17.48;56.13
69387;SHT31;56575;48.942;8.404;2023-06-14T06:04:05;17.64;55.99
69387;SHT31;56575;48.942;8.404;2023-06-14T06:06:31;17.74;56.23
69387;SHT31;56575;48.942;8.404;2023-06-14T06:08:57;17.92;55.64
69387;SHT31;56575;48.942;8.404;2023-06-14T06:11:23;18.05;55.60
69387;SHT31;56575;48.942;8.404;2023-06-14T06:13:48;18.19;55.03
69387;SHT31;56575;48.942;8.404;2023-06-14T06:16:14;18.41;54.38
69387;SHT31;56575;48.942;8.404;2023-06-14T06:18:40;18.50;53.94
69387;SHT31;56575;48.942;8.404;2023-06-14T06:21:05;18.58;53.90
69387;SHT31;56575;48.942;8.404;2023-06-14T06:23:31;18.64;54.31
69387;SHT31;56575;48.942;8.404;2023-06-14T06:25:56;18.72;54.07
69387;SHT31;56575;48.942;8.404;2023-06-14T06:28:22;18.76;53.55
69387;SHT31;56575;48.942;8.404;2023-06-14T06:30:47;18.81;53.69
69387;SHT31;56575;48.942;8.404;2023-06-14T06:33:12;18.81;53.38
69387;SHT31;56575;48.942;8.404;2023-06-14T06:35:39;18.81;53.45
69387;SHT31;56575;48.942;8.404;2023-06-14T06:38:04;18.89;53.04
69387;SHT31;56575;48.942;8.404;2023-06-14T06:40:30;18.92;53.30
69387;SHT31;56575;48.942;8.404;2023-06-14T06:42:55;19.05;52.92
69387;SHT31;56575;48.942;8.404;2023-06-14T06:45:21;19.15;52.60
69387;SHT31;56575;48.942;8.404;2023-06-14T06:47:48;19.22;52.92
69387;SHT31;56575;48.942;8.404;2023-06-14T06:50:14;19.20;52.08
69387;SHT31;56575;48.942;8.404;2023-06-14T06:52:39;19.23;52.53
69387;SHT31;56575;48.942;8.404;2023-06-14T06:55:05;19.27;52.54
69387;SHT31;56575;48.942;8.404;2023-06-14T06:57:31;19.36;52.30
69387;SHT31;56575;48.942;8.404;2023-06-14T06:59:57;19.41;52.41
69387;SHT31;56575;48.942;8.404;2023-06-14T07:02:22;19.47;51.55
69387;SHT31;56575;48.942;8.404;2023-06-14T07:04:48;19.50;51.66
69387;SHT31;56575;48.942;8.404;2023-06-14T07:07:13;19.60;51.62
69387;SHT31;56575;48.942;8.404;2023-06-14T07:09:38;19.60;51.57
69387;SHT31;56575;48.942;8.404;2023-06-14T07:12:04;19.67;52.65
69387;SHT31;56575;48.942;8.404;2023-06-14T07:14:30;19.77;51.71
69387;SHT31;56575;48.942;8.404;2023-06-14T07:16:55;19.84;51.84
69387;SHT31;56575;48.942;8.404;2023-06-14T07:19:21;19.92;51.49
69387;SHT31;56575;48.942;8.404;2023-06-14T07:21:46;20.04;50.95
69387;SHT31;56575;48.942;8.404;2023-06-14T07:24:11;20.09;50.85
69387;SHT31;56575;48.942;8.404;2023-06-14T07:26:37;20.18;50.58
69387;SHT31;56575;48.942;8.404;2023-06-14T07:29:02;20.25;50.10
69387;SHT31;56575;48.942;8.404;2023-06-14T07:31:28;20.28;50.50
69387;SHT31;56575;48.942;8.404;2023-06-14T07:33:53;20.33;50.23
69387;SHT31;56575;48.942;8.404;2023-06-14T07:36:18;20.30;50.05
69387;SHT31;56575;48.942;8.404;2023-06-14T07:38:44;20.32;50.22
69387;SHT31;56575;48.942;8.404;2023-06-14T07:41:10;20.33;49.76
69387;SHT31;56575;48.942;8.404;2023-06-14T07:43:35;20.37;50.37
69387;SHT31;56575;48.942;8.404;2023-06-14T07:46:01;20.41;50.25
69387;SHT31;56575;48.942;8.404;2023-06-14T07:48:27;20.50;50.27
69387;SHT31;56575;48.942;8.404;2023-06-14T07:50:52;20.64;50.46
69387;SHT31;56575;48.942;8.404;2023-06-14T07:53:18;20.73;50.10
69387;SHT31;56575;48.942;8.404;2023-06-14T07:55:43;20.82;49.98
69387;SHT31;56575;48.942;8.404;2023-06-14T07:58:09;20.91;48.98
69387;SHT31;56575;48.942;8.404;2023-06-14T08:00:34;20.99;49.18
69387;SHT31;56575;48.942;8.404;2023-06-14T08:03:00;21.11;49.67
69387;SHT31;56575;48.942;8.404;2023-06-14T08:05:26;21.23;48.40
69387;SHT31;56575;48.942;8.404;2023-06-14T08:07:52;21.33;49.46
69387;SHT31;56575;48.942;8.404;2023-06-14T08:10:18;21.46;48.97
69387;SHT31;56575;48.942;8.404;2023-06-14T08:12:43;21.57;48.30
69387;SHT31;56575;48.942;8.404;2023-06-14T08:15:09;21.70;47.91
69387;SHT31;56575;48.942;8.404;2023-06-14T08:17:35;21.75;48.58
69387;SHT31;56575;48.942;8.404;2023-06-14T08:20:01;21.84;47.04
69387;SHT31;56575;48.942;8.404;2023-06-14T08:22:26;21.94;47.41
69387;SHT31;56575;48.942;8.404;2023-06-14T08:24:53;22.09;47.55
69387;SHT31;56575;48.942;8.404;2023-06-14T08:27:19;22.32;46.84
69387;SHT31;56575;48.942;8.404;2023-06-14T08:29:45;22.42;46.18
69387;SHT31;56575;48.942;8.404;2023-06-14T08:32:11;22.64;46.40
69387;SHT31;56575;48.942;8.404;2023-06-14T08:34:37;22.78;44.88
69387;SHT31;56575;48.942;8.404;2023-06-14T08:37:02;23.01;44.09
69387;SHT31;56575;48.942;8.404;2023-06-14T08:39:27;23.18;43.95
69387;SHT31;56575;48.942;8.404;2023-06-14T08:41:54;23.36;43.90
69387;SHT31;56575;48.942;8.404;2023-06-14T08:44:20;23.54;43.34
69387;SHT31;56575;48.942;8.404;2023-06-14T08:46:47;23.64;43.70
69387;SHT31;56575;48.942;8.404;2023-06-14T08:49:13;23.88;41.99
69387;SHT31;56575;48.942;8.404;2023-06-14T08:51:42;23.94;43.55
69387;SHT31;56575;48.942;8.404;2023-06-14T08:54:09;23.94;42.82
69387;SHT31;56575;48.942;8.404;2023-06-14T08:56:37;23.91;42.35
69387;SHT31;56575;48.942;8.404;2023-06-14T08:59:03;23.88;43.13
69387;SHT31;56575;48.942;8.404;2023-06-14T09:01:33;23.81;43.31
69387;SHT31;56575;48.942;8.404;2023-06-14T09:04:00;23.74;43.55
69387;SHT31;56575;48.942;8.404;2023-06-14T09:06:25;23.62;42.94
69387;SHT31;56575;48.942;8.404;2023-06-14T09:08:55;23.60;42.71
69387;SHT31;56575;48.942;8.404;2023-06-14T09:11:24;23.59;43.31
69387;SHT31;56575;48.942;8.404;2023-06-14T09:13:51;23.69;43.05
69387;SHT31;56575;48.942;8.404;2023-06-14T09:16:16;23.75;42.99
69387;SHT31;56575;48.942;8.404;2023-06-14T09:18:46;23.78;42.53
69387;SHT31;56575;48.942;8.404;2023-06-14T09:21:16;23.77;43.09
69387;SHT31;56575;48.942;8.404;2023-06-14T09:23:44;23.73;43.38
69387;SHT31;56575;48.942;8.404;2023-06-14T09:26:12;23.80;43.38
69387;SHT31;56575;48.942;8.404;2023-06-14T09:28:42;23.81;43.07
69387;SHT31;56575;48.942;8.404;2023-06-14T09:31:08;23.81;43.39
69387;SHT31;56575;48.942;8.404;2023-06-14T09:33:35;23.81;42.42
69387;SHT31;56575;48.942;8.404;2023-06-14T09:36:00;23.84;43.45
69387;SHT31;56575;48.942;8.404;2023-06-14T09:38:26;23.90;42.87
69387;SHT31;56575;48.942;8.404;2023-06-14T09:40:52;24.02;42.75
69387;SHT31;56575;48.942;8.404;2023-06-14T09:43:17;24.17;41.38
69387;SHT31;56575;48.942;8.404;2023-06-14T09:45:44;24.35;40.64
69387;SHT31;56575;48.942;8.404;2023-06-14T09:48:11;24.53;40.74
69387;SHT31;56575;48.942;8.404;2023-06-14T09:50:44;24.77;39.59
69387;SHT31;56575;48.942;8.404;2023-06-14T09:53:11;24.90;39.14
69387;SHT31;56575;48.942;8.404;2023-06-14T09:55:37;25.10;39.65
69387;SHT31;56575;48.942;8.404;2023-06-14T09:58:06;25.36;40.35
69387;SHT31;56575;48.942;8.404;2023-06-14T10:00:33;25.66;39.81
69387;SHT31;56575;48.942;8.404;2023-06-14T10:03:06;25.77;38.33
69387;SHT31;56575;48.942;8.404;2023-06-14T10:05:36;26.04;38.61
69387;SHT31;56575;48.942;8.404;2023-06-14T10:08:08;26.24;37.43
69387;SHT31;56575;48.942;8.404;2023-06-14T10:10:34;26.45;36.26
69387;SHT31;56575;48.942;8.404;2023-06-14T10:13:00;26.70;35.69
69387;SHT31;56575;48.942;8.404;2023-06-14T10:15:38;27.11;35.31
69387;SHT31;56575;48.942;8.404;2023-06-14T10:18:18;27.49;35.43
69387;SHT31;56575;48.942;8.404;2023-06-14T10:23:30;28.06;33.14
69387;SHT31;56575;48.942;8.404;2023-06-14T10:25:57;28.41;33.48
69387;SHT31;56575;48.942;8.404;2023-06-14T10:28:22;28.99;34.19
69387;SHT31;56575;48.942;8.404;2023-06-14T10:31:09;28.96;30.90
69387;SHT31;56575;48.942;8.404;2023-06-14T10:33:39;29.17;31.58
69387;SHT31;56575;48.942;8.404;2023-06-14T10:36:29;29.57;32.55
69387;SHT31;56575;48.942;8.404;2023-06-14T10:39:07;30.00;31.16
69387;SHT31;56575;48.942;8.404;2023-06-14T10:41:40;30.41;29.34
69387;SHT31;56575;48.942;8.404;2023-06-14T10:46:52;30.59;29.26
69387;SHT31;56575;48.942;8.404;2023-06-14T10:49:18;31.07;29.01
69387;SHT31;56575;48.942;8.404;2023-06-14T10:51:54;31.06;29.43
69387;SHT31;56575;48.942;8.404;2023-06-14T10:54:22;31.30;28.78
69387;SHT31;56575;48.942;8.404;2023-06-14T10:56:52;31.48;28.34
69387;SHT31;56575;48.942;8.404;2023-06-14T10:59:19;31.96;28.59
69387;SHT31;56575;48.942;8.404;2023-06-14T11:04:51;30.78;28.28
69387;SHT31;56575;48.942;8.404;2023-06-14T11:10:38;31.92;27.02
69387;SHT31;56575;48.942;8.404;2023-06-14T11:13:06;32.75;25.40
69387;SHT31;56575;48.942;8.404;2023-06-14T11:15:36;33.10;25.38
69387;SHT31;56575;48.942;8.404;2023-06-14T11:18:08;33.03;25.71
69387;SHT31;56575;48.942;8.404;2023-06-14T11:20:37;33.19;25.47
69387;SHT31;56575;48.942;8.404;2023-06-14T11:23:03;33.02;24.24
69387;SHT31;56575;48.942;8.404;2023-06-14T11:25:29;33.33;25.77
69387;SHT31;56575;48.942;8.404;2023-06-14T11:27:55;33.37;25.86
69387;SHT31;56575;48.942;8.404;2023-06-14T11:30:21;33.56;25.29
69387;SHT31;56575;48.942;8.404;2023-06-14T11:32:51;33.60;24.55
69387;SHT31;56575;48.942;8.404;2023-06-14T11:35:22;33.34;25.40
69387;SHT31;56575;48.942;8.404;2023-06-14T11:37:49;33.42;25.13
69387;SHT31;56575;48.942;8.404;2023-06-14T11:40:17;34.19;24.72
69387;SHT31;56575;48.942;8.404;2023-06-14T11:42:42;34.39;25.02
69387;SHT31;56575;48.942;8.404;2023-06-14T11:45:09;34.64;24.84
69387;SHT31;56575;48.942;8.404;2023-06-14T11:47:36;35.04;23.32
69387;SHT31;56575;48.942;8.404;2023-06-14T11:50:03;34.90;24.33
69387;SHT31;56575;48.942;8.404;2023-06-14T11:52:28;35.02;23.96
69387;SHT31;56575;48.942;8.404;2023-06-14T11:54:54;34.88;24.59
69387;SHT31;56575;48.942;8.404;2023-06-14T11:57:20;35.31;25.03
69387;SHT31;56575;48.942;8.404;2023-06-14T11:59:46;35.12;23.35
69387;SHT31;56575;48.942;8.404;2023-06-14T12:02:16;34.90;25.20
69387;SHT31;56575;48.942;8.404;2023-06-14T12:04:42;35.01;25.59
69387;SHT31;56575;48.942;8.404;2023-06-14T12:07:11;35.25;23.91
69387;SHT31;56575;48.942;8.404;2023-06-14T12:09:40;35.31;24.46
69387;SHT31;56575;48.942;8.404;2023-06-14T12:12:08;34.80;25.21
69387;SHT31;56575;48.942;8.404;2023-06-14T12:14:34;33.53;26.49
69387;SHT31;56575;48.942;8.404;2023-06-14T12:17:07;33.39;26.39
69387;SHT31;56575;48.942;8.404;2023-06-14T12:19:33;32.05;27.47
69387;SHT31;56575;48.942;8.404;2023-06-14T12:22:06;31.13;28.83
69387;SHT31;56575;48.942;8.404;2023-06-14T12:24:32;30.28;29.58
69387;SHT31;56575;48.942;8.404;2023-06-14T12:26:58;29.89;30.54
69387;SHT31;56575;48.942;8.404;2023-06-14T12:29:28;29.63;31.44
69387;SHT31;56575;48.942;8.404;2023-06-14T12:31:54;29.27;31.76
69387;SHT31;56575;48.942;8.404;2023-06-14T12:34:21;29.69;31.39
69387;SHT31;56575;48.942;8.404;2023-06-14T12:36:47;30.71;31.28
69387;SHT31;56575;48.942;8.404;2023-06-14T12:39:12;31.52;29.80
69387;SHT31;56575;48.942;8.404;2023-06-14T12:41:38;32.05;27.99
69387;SHT31;56575;48.942;8.404;2023-06-14T12:44:06;32.33;28.66
69387;SHT31;56575;48.942;8.404;2023-06-14T12:46:32;32.34;28.27
69387;SHT31;56575;48.942;8.404;2023-06-14T12:48:57;32.44;28.83
69387;SHT31;56575;48.942;8.404;2023-06-14T12:51:23;32.64;29.15
69387;SHT31;56575;48.942;8.404;2023-06-14T12:53:49;32.82;27.52
69387;SHT31;56575;48.942;8.404;2023-06-14T12:56:14;32.94;28.84
69387;SHT31;56575;48.942;8.404;2023-06-14T12:58:41;33.16;26.84
69387;SHT31;56575;48.942;8.404;2023-06-14T13:01:06;32.27;26.35
69387;SHT31;56575;48.942;8.404;2023-06-14T13:03:32;31.88;28.40
69387;SHT31;56575;48.942;8.404;2023-06-14T13:05:58;32.21;29.90
69387;SHT31;56575;48.942;8.404;2023-06-14T13:08:24;32.16;29.29
69387;SHT31;56575;48.942;8.404;2023-06-14T13:10:49;32.48;28.73
69387;SHT31;56575;48.942;8.404;2023-06-14T13:13:15;32.53;28.43
69387;SHT31;56575;48.942;8.404;2023-06-14T13:15:40;32.72;28.08
69387;SHT31;56575;48.942;8.404;2023-06-14T13:18:05;32.45;28.58
69387;SHT31;56575;48.942;8.404;2023-06-14T13:20:31;32.02;28.22
69387;SHT31;56575;48.942;8.404;2023-06-14T13:22:57;31.48;27.51
69387;SHT31;56575;48.942;8.404;2023-06-14T13:25:22;30.96;27.33
69387;SHT31;56575;48.942;8.404;2023-06-14T13:27:48;31.17;29.21
69387;SHT31;56575;48.942;8.404;2023-06-14T13:30:13;31.02;29.90
69387;SHT31;56575;48.942;8.404;2023-06-14T13:32:39;31.26;30.18
69387;SHT31;56575;48.942;8.404;2023-06-14T13:35:05;30.86;32.74
69387;SHT31;56575;48.942;8.404;2023-06-14T13:37:31;30.52;33.63
69387;SHT31;56575;48.942;8.404;2023-06-14T13:39:56;30.21;32.83
69387;SHT31;56575;48.942;8.404;2023-06-14T13:42:22;30.18;38.95
69387;SHT31;56575;48.942;8.404;2023-06-14T13:44:47;30.06;32.50
69387;SHT31;56575;48.942;8.404;2023-06-14T13:47:13;29.69;33.56
69387;SHT31;56575;48.942;8.404;2023-06-14T13:49:38;29.38;35.86
69387;SHT31;56575;48.942;8.404;2023-06-14T13:52:04;29.51;36.08
69387;SHT31;56575;48.942;8.404;2023-06-14T13:54:29;29.68;37.77
69387;SHT31;56575;48.942;8.404;2023-06-14T13:56:55;29.80;34.33
69387;SHT31;56575;48.942;8.404;2023-06-14T13:59:20;29.96;37.46
69387;SHT31;56575;48.942;8.404;2023-06-14T14:01:46;29.82;35.73
69387;SHT31;56575;48.942;8.404;2023-06-14T14:04:12;29.83;36.59
69387;SHT31;56575;48.942;8.404;2023-06-14T14:06:38;29.90;33.76
69387;SHT31;56575;48.942;8.404;2023-06-14T14:09:03;30.10;36.20
69387;SHT31;56575;48.942;8.404;2023-06-14T14:11:28;30.07;31.98
69387;SHT31;56575;48.942;8.404;2023-06-14T14:13:58;30.24;32.96
69387;SHT31;56575;48.942;8.404;2023-06-14T14:16:23;30.35;32.46
69387;SHT31;56575;48.942;8.404;2023-06-14T14:18:49;30.44;33.62
69387;SHT31;56575;48.942;8.404;2023-06-14T14:21:14;30.40;33.51
69387;SHT31;56575;48.942;8.404;2023-06-14T14:23:40;30.37;30.49
69387;SHT31;56575;48.942;8.404;2023-06-14T14:26:05;30.24;29.94
69387;SHT31;56575;48.942;8.404;2023-06-14T14:28:31;30.21;32.92
69387;SHT31;56575;48.942;8.404;2023-06-14T14:30:57;30.31;32.16
69387;SHT31;56575;48.942;8.404;2023-06-14T14:33:23;30.28;30.18
69387;SHT31;56575;48.942;8.404;2023-06-14T14:35:48;30.24;30.18
69387;SHT31;56575;48.942;8.404;2023-06-14T14:38:14;30.31;31.38
69387;SHT31;56575;48.942;8.404;2023-06-14T14:40:43;30.35;29.39
69387;SHT31;56575;48.942;8.404;2023-06-14T14:43:09;30.51;29.42
69387;SHT31;56575;48.942;8.404;2023-06-14T14:45:36;30.67;31.20
69387;SHT31;56575;48.942;8.404;2023-06-14T14:48:01;30.38;29.41
69387;SHT31;56575;48.942;8.404;2023-06-14T14:50:27;30.24;29.17
69387;SHT31;56575;48.942;8.404;2023-06-14T14:52:53;30.30;29.26
69387;SHT31;56575;48.942;8.404;2023-06-14T14:55:18;30.32;29.19
69387;SHT31;56575;48.942;8.404;2023-06-14T14:57:45;30.37;29.77
69387;SHT31;56575;48.942;8.404;2023-06-14T15:00:11;30.24;29.29
69387;SHT31;56575;48.942;8.404;2023-06-14T15:02:36;30.25;27.97
69387;SHT31;56575;48.942;8.404;2023-06-14T15:05:02;30.28;28.63
69387;SHT31;56575;48.942;8.404;2023-06-14T15:07:28;30.37;29.17
69387;SHT31;56575;48.942;8.404;2023-06-14T15:09:54;30.41;29.28
69387;SHT31;56575;48.942;8.404;2023-06-14T15:12:20;30.48;29.58
69387;SHT31;56575;48.942;8.404;2023-06-14T15:14:49;30.57;29.67
69387;SHT31;56575;48.942;8.404;2023-06-14T15:17:14;30.51;28.55
69387;SHT31;56575;48.942;8.404;2023-06-14T15:19:40;30.49;28.96
69387;SHT31;56575;48.942;8.404;2023-06-14T15:22:05;30.41;29.29
69387;SHT31;56575;48.942;8.404;2023-06-14T15:24:30;30.38;28.88
69387;SHT31;56575;48.942;8.404;2023-06-14T15:26:58;30.40;28.11
69387;SHT31;56575;48.942;8.404;2023-06-14T15:29:23;30.51;29.21
69387;SHT31;56575;48.942;8.404;2023-06-14T15:31:48;30.38;26.72
69387;SHT31;56575;48.942;8.404;2023-06-14T15:34:14;30.32;29.14
69387;SHT31;56575;48.942;8.404;2023-06-14T15:36:39;30.34;29.69
69387;SHT31;56575;48.942;8.404;2023-06-14T15:39:05;30.37;29.18